createdAt,value
2022-09-07T00:00:56.964Z,14.2
2022-09-07T00:02:05.314Z,14.2
2022-09-07T00:03:13.800Z,14.2
2022-09-07T00:04:22.305Z,14.3
2022-09-07T00:05:30.593Z,14.3
2022-09-07T00:06:38.965Z,14.3
2022-09-07T00:07:47.520Z,13.9
2022-09-07T00:08:55.884Z,13.9
2022-09-07T00:10:04.243Z,13.9
2022-09-07T00:11:12.801Z,14.2
2022-09-07T00:12:21.160Z,14.2
2022-09-07T00:13:29.508Z,14.2
2022-09-07T00:14:38.076Z,14.3
2022-09-07T00:15:46.465Z,14.3
2022-09-07T00:16:54.770Z,14.3
2022-09-07T00:18:03.317Z,14.1
2022-09-07T00:19:11.649Z,14.1
2022-09-07T00:20:20.022Z,14.1
2022-09-07T00:21:28.585Z,14
2022-09-07T00:22:36.944Z,14
2022-09-07T00:23:45.289Z,14
2022-09-07T00:24:53.858Z,14
2022-09-07T00:26:02.204Z,14
2022-09-07T00:27:10.545Z,14
2022-09-07T00:28:19.082Z,15.5
2022-09-07T00:29:27.437Z,15.5
2022-09-07T00:30:35.791Z,15.5
2022-09-07T00:31:44.388Z,15.4
2022-09-07T00:32:52.713Z,15.4
2022-09-07T00:34:01.055Z,15.4
2022-09-07T00:35:09.617Z,15.8
2022-09-07T00:36:17.976Z,15.8
2022-09-07T00:37:26.315Z,15.8
2022-09-07T00:38:34.878Z,15.2
2022-09-07T00:39:43.259Z,15.2
2022-09-07T00:40:51.571Z,15.2
2022-09-07T00:42:00.113Z,14.9
2022-09-07T00:43:08.460Z,14.9
2022-09-07T00:44:16.801Z,14.9
2022-09-07T00:45:25.367Z,15
2022-09-07T00:46:33.767Z,15
2022-09-07T00:47:42.083Z,15
2022-09-07T00:48:50.632Z,15.3
2022-09-07T00:49:58.960Z,15.3
2022-09-07T00:51:07.328Z,15.3
2022-09-07T00:52:15.888Z,14.8
2022-09-07T00:53:24.229Z,14.8
2022-09-07T00:54:32.608Z,14.8
2022-09-07T00:55:41.173Z,16.9
2022-09-07T00:56:49.505Z,16.9
2022-09-07T00:57:57.852Z,16.9
2022-09-07T00:59:06.418Z,14.1
2022-09-07T01:00:14.778Z,14.1
2022-09-07T01:01:23.240Z,14.1
2022-09-07T01:02:31.800Z,14.8
2022-09-07T01:03:40.034Z,14.8
2022-09-07T01:04:48.387Z,14.8
2022-09-07T01:05:56.945Z,13.6
2022-09-07T01:07:05.308Z,13.6
2022-09-07T01:08:13.663Z,13.6
2022-09-07T01:09:22.235Z,14.7
2022-09-07T01:10:30.585Z,14.7
2022-09-07T01:11:38.949Z,14.7
2022-09-07T01:12:47.510Z,14.6
2022-09-07T01:13:55.871Z,14.6
2022-09-07T01:15:04.241Z,14.6
2022-09-07T01:16:12.871Z,14.4
2022-09-07T01:17:21.159Z,14.4
2022-09-07T01:18:29.734Z,14.4
2022-09-07T01:19:38.109Z,15.2
2022-09-07T01:20:46.460Z,15.2
2022-09-07T01:21:54.819Z,15.2
2022-09-07T01:23:03.369Z,15
2022-09-07T01:24:11.710Z,15
2022-09-07T01:25:20.058Z,15
2022-09-07T01:26:28.617Z,15.4
2022-09-07T01:27:36.974Z,15.4
2022-09-07T01:28:45.310Z,15.4
2022-09-07T01:29:53.895Z,14.6
2022-09-07T01:31:02.312Z,14.6
2022-09-07T01:32:10.596Z,14.6
2022-09-07T01:33:19.164Z,15.1
2022-09-07T01:34:27.526Z,15.1
2022-09-07T01:35:35.878Z,15.1
2022-09-07T01:36:44.453Z,14.5
2022-09-07T01:37:56.386Z,14.5
2022-09-07T01:39:01.154Z,14.5
2022-09-07T01:40:09.787Z,14.5
2022-09-07T01:41:18.069Z,14.5
2022-09-07T01:42:26.425Z,14.5
2022-09-07T01:43:34.987Z,14.6
2022-09-07T01:44:43.335Z,14.6
2022-09-07T01:45:51.658Z,14.6
2022-09-07T01:47:00.204Z,15.1
2022-09-07T01:48:08.555Z,15.1
2022-09-07T01:49:16.940Z,15.1
2022-09-07T01:50:25.499Z,15.5
2022-09-07T01:51:33.830Z,15.5
2022-09-07T01:52:42.177Z,15.5
2022-09-07T01:53:50.747Z,14.8
2022-09-07T01:54:59.108Z,14.8
2022-09-07T01:56:07.454Z,14.8
2022-09-07T01:57:16.004Z,14.8
2022-09-07T01:58:24.443Z,14.8
2022-09-07T01:59:32.706Z,14.8
2022-09-07T02:00:41.270Z,14.2
2022-09-07T02:01:49.674Z,14.2
2022-09-07T02:02:58.009Z,14.2
2022-09-07T02:04:06.507Z,14.8
2022-09-07T02:05:14.875Z,14.8
2022-09-07T02:06:23.204Z,14.8
2022-09-07T02:07:31.765Z,15
2022-09-07T02:08:40.130Z,15
2022-09-07T02:09:48.467Z,15
2022-09-07T02:10:56.996Z,14.9
2022-09-07T02:12:05.339Z,14.9
2022-09-07T02:13:13.705Z,14.9
2022-09-07T02:14:22.260Z,15.1
2022-09-07T02:15:30.687Z,15.1
2022-09-07T02:16:38.967Z,15.1
2022-09-07T02:17:47.539Z,14.6
2022-09-07T02:18:55.882Z,14.6
2022-09-07T02:20:04.226Z,14.6
2022-09-07T02:21:12.776Z,14.8
2022-09-07T02:22:21.122Z,14.8
2022-09-07T02:23:29.469Z,14.8
2022-09-07T02:24:38.035Z,14.1
2022-09-07T02:25:46.382Z,14.1
2022-09-07T02:26:54.752Z,14.1
2022-09-07T02:28:03.313Z,13.5
2022-09-07T02:29:11.673Z,13.5
2022-09-07T02:30:20.020Z,13.5
2022-09-07T02:31:28.634Z,14.5
2022-09-07T02:32:36.926Z,14.5
2022-09-07T02:33:45.291Z,14.5
2022-09-07T02:34:53.839Z,14.4
2022-09-07T02:36:02.183Z,14.4
2022-09-07T02:37:10.536Z,14.4
2022-09-07T02:38:19.089Z,13.9
2022-09-07T02:39:27.476Z,13.9
2022-09-07T02:40:35.789Z,13.9
2022-09-07T02:41:44.363Z,14.4
2022-09-07T02:42:52.714Z,14.4
2022-09-07T02:44:01.114Z,14.4
2022-09-07T02:45:09.652Z,13.8
2022-09-07T02:46:18.043Z,13.8
2022-09-07T02:47:26.373Z,13.8
2022-09-07T02:48:34.941Z,13.2
2022-09-07T02:49:43.290Z,13.2
2022-09-07T02:50:51.629Z,13.2
2022-09-07T02:52:00.192Z,13.6
2022-09-07T02:53:08.533Z,13.6
2022-09-07T02:54:16.883Z,13.6
2022-09-07T02:55:25.439Z,12.2
2022-09-07T02:56:33.803Z,12.2
2022-09-07T02:57:42.168Z,12.2
2022-09-07T02:58:50.752Z,12
2022-09-07T02:59:59.090Z,12
2022-09-07T03:01:07.542Z,12
2022-09-07T03:02:16.116Z,12
2022-09-07T03:03:24.355Z,12
2022-09-07T03:04:32.715Z,12
2022-09-07T03:05:41.290Z,12.9
2022-09-07T03:06:49.623Z,12.9
2022-09-07T03:07:57.979Z,12.9
2022-09-07T03:09:06.555Z,13.8
2022-09-07T03:10:14.922Z,13.8
2022-09-07T03:11:23.276Z,13.8
2022-09-07T03:12:31.834Z,13.9
2022-09-07T03:13:40.190Z,13.9
2022-09-07T03:14:48.542Z,13.9
2022-09-07T03:15:57.185Z,13.4
2022-09-07T03:17:05.449Z,13.4
2022-09-07T03:18:13.831Z,13.4
2022-09-07T03:19:22.388Z,13.9
2022-09-07T03:20:30.739Z,13.9
2022-09-07T03:21:39.103Z,13.9
2022-09-07T03:22:47.672Z,16.4
2022-09-07T03:23:56.026Z,16.4
2022-09-07T03:25:04.375Z,16.4
2022-09-07T03:26:12.935Z,14.2
2022-09-07T03:27:21.284Z,14.2
2022-09-07T03:28:29.737Z,14.2
2022-09-07T03:29:41.391Z,14.6
2022-09-07T03:30:46.584Z,14.6
2022-09-07T03:31:54.896Z,14.6
2022-09-07T03:33:03.464Z,13.5
2022-09-07T03:34:11.799Z,13.5
2022-09-07T03:35:20.141Z,13.5
2022-09-07T03:36:28.711Z,14.5
2022-09-07T03:37:37.094Z,14.5
2022-09-07T03:38:45.461Z,14.5
2022-09-07T03:39:54.152Z,13.6
2022-09-07T03:41:02.387Z,13.6
2022-09-07T03:42:10.754Z,13.6
2022-09-07T03:43:19.298Z,14.3
2022-09-07T03:44:27.654Z,14.3
2022-09-07T03:45:36.030Z,14.3
2022-09-07T03:46:44.602Z,13.8
2022-09-07T03:47:52.970Z,13.8
2022-09-07T03:49:01.307Z,13.8
2022-09-07T03:50:09.860Z,13.7
2022-09-07T03:51:18.201Z,13.7
2022-09-07T03:52:26.575Z,13.7
2022-09-07T03:53:35.123Z,14.1
2022-09-07T03:54:43.472Z,14.1
2022-09-07T03:55:51.828Z,14.1
2022-09-07T03:57:00.396Z,13.3
2022-09-07T03:58:08.742Z,13.3
2022-09-07T03:59:17.099Z,13.3
2022-09-07T04:00:25.651Z,13.2
2022-09-07T04:01:34.065Z,13.2
2022-09-07T04:02:42.441Z,13.2
2022-09-07T04:03:50.921Z,13.2
2022-09-07T04:04:59.277Z,13.2
2022-09-07T04:06:07.628Z,13.2
2022-09-07T04:07:16.204Z,12
2022-09-07T04:08:24.561Z,12
2022-09-07T04:09:32.922Z,12
2022-09-07T04:10:41.488Z,13.6
2022-09-07T04:11:49.837Z,13.6
2022-09-07T04:12:58.176Z,13.6
2022-09-07T04:14:06.741Z,13.5
2022-09-07T04:15:15.085Z,13.5
2022-09-07T04:16:23.520Z,13.5
2022-09-07T04:17:31.982Z,13.4
2022-09-07T04:18:40.340Z,13.4
2022-09-07T04:19:48.679Z,13.4
2022-09-07T04:20:57.255Z,13.9
2022-09-07T04:22:05.621Z,13.9
2022-09-07T04:23:13.973Z,13.9
2022-09-07T04:24:22.543Z,15
2022-09-07T04:25:30.903Z,15
2022-09-07T04:26:39.271Z,15
2022-09-07T04:27:47.823Z,15.3
2022-09-07T04:28:56.185Z,15.3
2022-09-07T04:30:04.510Z,15.3
2022-09-07T04:31:13.112Z,14.8
2022-09-07T04:32:21.445Z,14.8
2022-09-07T04:33:29.800Z,14.8
2022-09-07T04:34:38.377Z,16.799999
2022-09-07T04:35:46.744Z,16.799999
2022-09-07T04:36:55.095Z,16.799999
2022-09-07T04:38:03.656Z,15.9
2022-09-07T04:39:11.989Z,15.9
2022-09-07T04:40:20.338Z,15.9
2022-09-07T04:41:28.896Z,18.200001
2022-09-07T04:42:37.242Z,18.200001
2022-09-07T04:43:45.586Z,18.200001
2022-09-07T04:44:54.175Z,16.299999
2022-09-07T04:46:02.534Z,16.299999
2022-09-07T04:47:10.853Z,16.299999
2022-09-07T04:48:19.397Z,16.1
2022-09-07T04:49:27.733Z,16.1
2022-09-07T04:50:36.085Z,16.1
2022-09-07T04:51:44.629Z,15.6
2022-09-07T04:52:52.961Z,15.6
2022-09-07T04:54:01.300Z,15.6
2022-09-07T04:55:09.861Z,15.8
2022-09-07T04:56:18.204Z,15.8
2022-09-07T04:57:26.546Z,15.8
2022-09-07T04:58:35.086Z,15.1
2022-09-07T04:59:43.442Z,15.1
2022-09-07T05:00:51.815Z,15.1
2022-09-07T05:02:00.424Z,16.200001
2022-09-07T05:03:08.708Z,16.200001
2022-09-07T05:04:17.065Z,16.200001
2022-09-07T05:05:25.639Z,15.8
2022-09-07T05:06:33.999Z,15.8
2022-09-07T05:07:42.351Z,15.8
2022-09-07T05:08:50.980Z,15.8
2022-09-07T05:09:59.333Z,15.8
2022-09-07T05:11:07.704Z,15.8
2022-09-07T05:12:16.272Z,15.4
2022-09-07T05:13:24.598Z,15.4
2022-09-07T05:14:32.960Z,15.4
2022-09-07T05:15:41.511Z,14.5
2022-09-07T05:16:49.967Z,14.5
2022-09-07T05:17:58.181Z,14.5
2022-09-07T05:19:06.725Z,14.5
2022-09-07T05:20:18.454Z,14.5
2022-09-07T05:21:23.433Z,14.5
2022-09-07T05:22:31.993Z,14.2
2022-09-07T05:23:40.343Z,14.2
2022-09-07T05:24:48.668Z,14.2
2022-09-07T05:25:57.235Z,12.4
2022-09-07T05:27:05.574Z,12.4
2022-09-07T05:28:18.685Z,12.4
2022-09-07T05:31:39.167Z,12.8
2022-09-07T05:32:47.716Z,12.1
2022-09-07T05:35:04.407Z,12.1
2022-09-07T05:36:12.969Z,12
2022-09-07T05:37:21.327Z,12
2022-09-07T05:38:29.795Z,12
2022-09-07T05:39:38.274Z,12.1
2022-09-07T05:40:46.570Z,12.1
2022-09-07T05:41:54.934Z,12.1
2022-09-07T05:43:03.472Z,13
2022-09-07T05:45:20.145Z,13
2022-09-07T05:46:28.718Z,12.2
2022-09-07T05:47:37.059Z,12.2
2022-09-07T05:48:45.421Z,12.2
2022-09-07T05:49:55.256Z,13.7
2022-09-07T05:51:02.308Z,13.7
2022-09-07T05:52:10.640Z,13.7
2022-09-07T05:53:19.198Z,13.8
2022-09-07T05:54:27.558Z,13.8
2022-09-07T05:55:35.918Z,13.8
2022-09-07T05:56:44.454Z,13
2022-09-07T05:57:52.822Z,13
2022-09-07T05:59:01.161Z,13
2022-09-07T06:00:09.717Z,13
2022-09-07T06:01:18.076Z,13
2022-09-07T06:02:26.580Z,13
2022-09-07T06:03:34.986Z,16
2022-09-07T06:04:43.303Z,16
2022-09-07T06:05:51.668Z,16
2022-09-07T06:08:08.625Z,15.9
2022-09-07T06:09:16.972Z,15.9
2022-09-07T06:11:33.907Z,14.7
2022-09-07T06:12:43.418Z,14.7
2022-09-07T06:13:50.848Z,15.6
2022-09-07T06:14:59.196Z,15.6
2022-09-07T06:16:07.600Z,15.6
2022-09-07T06:17:16.108Z,15.5
2022-09-07T06:18:24.460Z,15.5
2022-09-07T06:19:32.821Z,15.5
2022-09-07T06:20:41.381Z,17.799999
2022-09-07T06:21:49.731Z,17.799999
2022-09-07T06:22:58.072Z,17.799999
2022-09-07T06:24:06.645Z,15.8
2022-09-07T06:25:14.989Z,15.8
2022-09-07T06:26:23.332Z,15.8
2022-09-07T06:27:31.896Z,16.4
2022-09-07T06:28:40.268Z,16.4
2022-09-07T06:29:48.634Z,16.4
2022-09-07T06:30:57.183Z,17.200001
2022-09-07T06:33:15.088Z,17.200001
2022-09-07T06:34:22.429Z,17.200001
2022-09-07T06:35:30.787Z,17.200001
2022-09-07T06:36:39.147Z,17.200001
2022-09-07T06:37:47.714Z,18.1
2022-09-07T06:38:56.064Z,18.1
2022-09-07T06:40:04.466Z,18.1
2022-09-07T06:42:21.346Z,17.4
2022-09-07T06:43:29.773Z,17.4
2022-09-07T06:44:38.272Z,16.799999
2022-09-07T06:45:46.629Z,16.799999
2022-09-07T06:48:03.531Z,16.200001
2022-09-07T06:49:11.889Z,16.200001
2022-09-07T06:50:20.244Z,16.200001
2022-09-07T06:51:28.802Z,16
2022-09-07T06:53:46.004Z,16
2022-09-07T06:55:01.498Z,16.6
2022-09-07T06:56:02.424Z,16.6
2022-09-07T06:57:10.793Z,16.6
2022-09-07T06:58:19.339Z,15.8
2022-09-07T06:59:27.741Z,15.8
2022-09-07T07:00:36.192Z,15.8
2022-09-07T07:01:44.655Z,16.200001
2022-09-07T07:02:53.042Z,16.200001
2022-09-07T07:04:01.335Z,16.200001
2022-09-07T07:05:09.915Z,15
2022-09-07T07:06:18.268Z,15
2022-09-07T07:07:26.619Z,15
2022-09-07T07:08:35.168Z,13.4
2022-09-07T07:09:43.524Z,13.4
2022-09-07T07:10:51.876Z,13.4
2022-09-07T07:12:00.445Z,11.5
2022-09-07T07:13:08.799Z,11.5
2022-09-07T07:14:15.099Z,11.5
2022-09-07T07:15:23.655Z,12.8
2022-09-07T07:16:32.074Z,12.8
2022-09-07T07:17:40.365Z,12.8
2022-09-07T07:18:48.923Z,13.2
2022-09-07T07:19:57.288Z,13.2
2022-09-07T07:21:05.651Z,13.2
2022-09-07T07:22:35.835Z,12.7
2022-09-07T07:23:22.581Z,12.7
2022-09-07T07:24:30.972Z,12.7
2022-09-07T07:25:39.529Z,12.3
2022-09-07T07:26:47.885Z,12.3
2022-09-07T07:27:56.848Z,12.3
2022-09-07T07:29:04.844Z,12.8
2022-09-07T07:30:13.166Z,12.8
2022-09-07T07:31:21.510Z,12.8
2022-09-07T07:32:30.081Z,11.5
2022-09-07T07:33:38.476Z,11.5
2022-09-07T07:34:46.796Z,11.5
2022-09-07T07:35:55.354Z,10.2
2022-09-07T07:37:03.708Z,10.2
2022-09-07T07:40:30.806Z,9.1
2022-09-07T07:42:45.902Z,10.4
2022-09-07T07:43:54.245Z,10.4
2022-09-07T07:46:11.220Z,10.5
2022-09-07T07:47:19.515Z,10.5
2022-09-07T07:48:27.851Z,10.5
2022-09-07T07:49:36.466Z,10.6
2022-09-07T07:50:44.784Z,10.6
2022-09-07T07:54:10.063Z,11.1
2022-09-07T07:55:48.125Z,11.1
2022-09-07T07:56:26.970Z,11
2022-09-07T07:57:35.309Z,11
2022-09-07T07:58:43.681Z,11
2022-09-07T07:59:52.235Z,10.3
2022-09-07T08:01:00.687Z,10.3
2022-09-07T08:02:09.177Z,10.3
2022-09-07T08:03:17.502Z,11.9
2022-09-07T08:04:25.863Z,11.9
2022-09-07T08:05:34.235Z,11.9
2022-09-07T08:06:42.781Z,11
2022-09-07T08:07:51.125Z,11
2022-09-07T08:08:59.474Z,11
2022-09-07T08:10:08.050Z,8.3
2022-09-07T08:11:16.402Z,8.3
2022-09-07T08:12:29.188Z,8.3
2022-09-07T08:13:33.313Z,9.4
2022-09-07T08:14:41.997Z,9.4
2022-09-07T08:15:50.060Z,9.4
2022-09-07T08:16:58.569Z,8.8
2022-09-07T08:18:06.927Z,8.8
2022-09-07T08:19:15.296Z,8.8
2022-09-07T08:20:23.846Z,8.2
2022-09-07T08:21:32.250Z,8.2
2022-09-07T08:22:40.587Z,8.2
2022-09-07T08:23:49.156Z,10.1
2022-09-07T08:24:57.525Z,10.1
2022-09-07T08:26:05.875Z,10.1
2022-09-07T08:27:14.413Z,8.4
2022-09-07T08:28:22.769Z,8.4
2022-09-07T08:29:33.737Z,8.4
2022-09-07T08:30:39.657Z,10.2
2022-09-07T08:31:48.032Z,10.2
2022-09-07T08:32:56.339Z,10.2
2022-09-07T08:34:04.910Z,10.6
2022-09-07T08:35:13.294Z,10.6
2022-09-07T08:36:21.710Z,10.6
2022-09-07T08:37:30.297Z,8
2022-09-07T08:38:38.634Z,8
2022-09-07T08:39:47.040Z,8
2022-09-07T08:40:55.553Z,12.2
2022-09-07T08:42:03.892Z,12.2
2022-09-07T08:43:12.228Z,12.2
2022-09-07T08:44:20.794Z,8.9
2022-09-07T08:45:29.148Z,8.9
2022-09-07T08:46:37.641Z,8.9
2022-09-07T08:47:46.087Z,7.7
2022-09-07T08:48:54.453Z,7.7
2022-09-07T08:50:02.817Z,7.7
2022-09-07T08:51:11.364Z,8.1
2022-09-07T08:52:19.731Z,8.1
2022-09-07T08:53:28.137Z,8.1
2022-09-07T08:54:36.650Z,7.3
2022-09-07T08:55:45.001Z,7.3
2022-09-07T08:58:01.891Z,8.5
2022-09-07T08:59:10.243Z,8.5
2022-09-07T09:00:18.583Z,8.5
2022-09-07T09:01:35.096Z,6.5
2022-09-07T09:02:42.147Z,6.5
2022-09-07T09:05:22.102Z,6.9
2022-09-07T09:06:00.849Z,6.9
2022-09-07T09:07:09.160Z,6.9
2022-09-07T09:08:17.641Z,9.4
2022-09-07T09:09:26.005Z,9.4
2022-09-07T09:10:34.365Z,9.4
2022-09-07T09:11:42.911Z,8.3
2022-09-07T09:12:51.248Z,8.3
2022-09-07T09:13:59.602Z,8.3
2022-09-07T09:15:08.160Z,6.6
2022-09-07T09:16:16.557Z,6.6
2022-09-07T09:17:24.852Z,6.6
2022-09-07T09:18:33.414Z,6.6
2022-09-07T09:19:41.760Z,6.6
2022-09-07T09:20:50.116Z,6.6
2022-09-07T09:21:58.690Z,8
2022-09-07T09:23:07.047Z,8
2022-09-07T09:24:15.405Z,8
2022-09-07T09:25:23.996Z,6
2022-09-07T09:26:32.315Z,6
2022-09-07T09:27:40.655Z,6
2022-09-07T09:28:49.226Z,9.3
2022-09-07T09:29:57.588Z,9.3
2022-09-07T09:31:05.981Z,9.3
2022-09-07T09:32:14.467Z,6.7
2022-09-07T09:33:22.819Z,6.7
2022-09-07T09:34:34.632Z,6.7
2022-09-07T09:35:39.733Z,8.4
2022-09-07T09:36:48.069Z,8.4
2022-09-07T09:37:56.429Z,8.4
2022-09-07T09:39:05.011Z,6.1
2022-09-07T09:40:13.435Z,6.1
2022-09-07T09:41:21.737Z,6.1
2022-09-07T09:42:30.301Z,7.7
2022-09-07T09:43:38.660Z,7.7
2022-09-07T09:44:47.011Z,7.7
2022-09-07T09:46:25.405Z,7.5
2022-09-07T09:47:33.914Z,7.5
2022-09-07T09:48:12.327Z,7.5
2022-09-07T09:49:20.898Z,7.1
2022-09-07T09:52:51.539Z,5.7
2022-09-07T09:53:54.467Z,5.7
2022-09-07T09:55:23.486Z,5.7
2022-09-07T09:56:11.345Z,6.3
2022-09-07T09:57:19.691Z,6.3
2022-09-07T10:04:13.329Z,6.4
2022-09-07T10:05:18.322Z,6.4
2022-09-07T10:06:26.894Z,5
2022-09-07T10:07:35.228Z,5
2022-09-07T10:08:43.573Z,5
2022-09-07T10:09:52.097Z,7.1
2022-09-07T10:11:00.459Z,7.1
2022-09-07T10:12:09.049Z,7.1
2022-09-07T10:13:17.384Z,7.2
2022-09-07T10:14:25.707Z,7.2
2022-09-07T10:15:37.766Z,7.2
2022-09-07T10:16:42.589Z,8.9
2022-09-07T10:17:50.944Z,8.9
2022-09-07T10:18:59.253Z,8.9
2022-09-07T10:20:07.797Z,7.3
2022-09-07T10:21:16.140Z,7.3
2022-09-07T10:22:24.468Z,7.3
2022-09-07T10:23:33.016Z,5.4
2022-09-07T10:24:41.358Z,5.4
2022-09-07T10:25:49.683Z,5.4
2022-09-07T10:26:58.222Z,5
2022-09-07T10:28:06.580Z,5
2022-09-07T10:29:15.290Z,5
2022-09-07T10:30:23.524Z,6.5
2022-09-07T10:31:32.059Z,6.5
2022-09-07T10:32:40.169Z,6.5
2022-09-07T10:34:57.075Z,5.8
2022-09-07T10:36:05.391Z,5.8
2022-09-07T10:37:13.942Z,7.1
2022-09-07T10:38:22.299Z,7.1
2022-09-07T10:39:30.699Z,7.1
2022-09-07T10:40:39.229Z,5.1
2022-09-07T10:41:47.554Z,5.1
2022-09-07T10:44:04.429Z,4.3
2022-09-07T10:45:12.777Z,4.3
2022-09-07T10:47:29.671Z,4.7
2022-09-07T10:48:37.933Z,4.7
2022-09-07T10:50:54.803Z,4.6
2022-09-07T10:52:03.130Z,4.6
2022-09-07T10:53:36.851Z,4.6
2022-09-07T10:54:35.759Z,5.7
2022-09-07T10:55:28.311Z,5.7
2022-09-07T10:56:36.636Z,5.7
2022-09-07T10:57:48.843Z,4.6
2022-09-07T10:59:09.143Z,4.6
2022-09-07T11:00:09.970Z,4.6
2022-09-07T11:01:10.709Z,5
2022-09-07T11:02:19.022Z,5
2022-09-07T11:03:27.713Z,5
2022-09-07T11:04:35.838Z,4.3
2022-09-07T11:05:44.161Z,4.3
2022-09-07T11:06:52.492Z,4.3
2022-09-07T11:08:01.034Z,6.1
2022-09-07T11:09:17.790Z,6.1
2022-09-07T11:10:17.704Z,6.1
2022-09-07T11:12:00.603Z,4.6
2022-09-07T11:12:34.647Z,4.6
2022-09-07T11:14:02.049Z,4.6
2022-09-07T11:14:51.496Z,8
2022-09-07T11:15:59.882Z,8
2022-09-07T11:17:08.200Z,8
2022-09-07T11:18:16.673Z,6.2
2022-09-07T11:19:40.499Z,6.2
2022-09-07T11:20:33.325Z,6.2
2022-09-07T11:21:57.292Z,6.3
2022-09-07T11:22:50.179Z,6.3
2022-09-07T11:23:58.504Z,6.3
2022-09-07T11:26:15.374Z,5.8
2022-09-07T11:27:23.696Z,5.8
2022-09-07T11:28:32.335Z,7.2
2022-09-07T11:29:40.560Z,7.2
2022-09-07T11:30:49.912Z,7.2
2022-09-07T11:31:57.419Z,3.8
2022-09-07T11:33:05.801Z,3.8
2022-09-07T11:34:29.586Z,3.8
2022-09-07T11:35:22.651Z,6.6
2022-09-07T11:36:30.990Z,6.6
2022-09-07T11:37:39.308Z,6.6
2022-09-07T11:38:47.856Z,4.4
2022-09-07T11:39:56.242Z,4.4
2022-09-07T11:41:04.580Z,4.4
2022-09-07T11:42:43.451Z,4.7
2022-09-07T11:43:21.461Z,4.7
2022-09-07T11:44:29.807Z,4.7
2022-09-07T11:45:38.370Z,4
2022-09-07T11:46:46.789Z,4
2022-09-07T11:47:55.040Z,4
2022-09-07T11:49:04.659Z,5.2
2022-09-07T11:50:11.911Z,5.2
2022-09-07T11:51:20.239Z,5.2
2022-09-07T11:52:28.769Z,4.3
2022-09-07T11:53:37.123Z,4.3
2022-09-07T11:54:45.511Z,4.3
2022-09-07T11:55:54.029Z,4.2
2022-09-07T11:57:02.355Z,4.2
2022-09-07T11:58:10.720Z,4.2
2022-09-07T11:59:19.307Z,5.3
2022-09-07T12:00:27.633Z,5.3
2022-09-07T12:01:35.965Z,5.3
2022-09-07T12:02:58.632Z,3
2022-09-07T12:03:52.917Z,3
2022-09-07T12:05:01.253Z,3
2022-09-07T12:06:09.743Z,3.6
2022-09-07T12:07:18.071Z,3.6
2022-09-07T12:08:26.475Z,3.6
2022-09-07T12:09:34.980Z,5.2
2022-09-07T12:10:43.324Z,5.2
2022-09-07T12:11:51.666Z,5.2
2022-09-07T12:13:00.207Z,4.7
2022-09-07T12:14:08.556Z,4.7
2022-09-07T12:15:16.866Z,4.7
2022-09-07T12:16:25.403Z,2.6
2022-09-07T12:17:33.764Z,2.6
2022-09-07T12:18:42.127Z,2.6
2022-09-07T12:19:50.677Z,7
2022-09-07T12:20:59.035Z,7
2022-09-07T12:22:07.322Z,7
2022-09-07T12:23:15.898Z,4.4
2022-09-07T12:24:24.229Z,4.4
2022-09-07T12:25:32.626Z,4.4
2022-09-07T12:26:41.232Z,4.7
2022-09-07T12:27:49.574Z,4.7
2022-09-07T12:28:57.895Z,4.7
2022-09-07T12:30:06.520Z,5.5
2022-09-07T12:31:14.872Z,5.5
2022-09-07T12:33:31.763Z,6.2
2022-09-07T12:34:40.089Z,6.2
2022-09-07T12:35:48.522Z,6.2
2022-09-07T12:36:57.100Z,3.8
2022-09-07T12:38:05.406Z,3.8
2022-09-07T12:39:13.747Z,3.8
2022-09-07T12:40:22.325Z,4
2022-09-07T12:41:30.657Z,4
2022-09-07T12:42:39.006Z,4
2022-09-07T12:43:47.561Z,4.8
2022-09-07T12:44:55.914Z,4.8
2022-09-07T12:46:04.371Z,4.8
2022-09-07T12:47:12.803Z,3.2
2022-09-07T12:48:21.143Z,3.2
2022-09-07T12:49:29.462Z,3.2
2022-09-07T12:50:40.092Z,3.4
2022-09-07T12:52:08.978Z,3.4
2022-09-07T12:52:54.713Z,3.4
2022-09-07T12:54:03.223Z,4.2
2022-09-07T12:55:27.005Z,4.2
2022-09-07T12:56:19.937Z,4.2
2022-09-07T12:57:29.798Z,4.1
2022-09-07T12:58:36.830Z,4.1
2022-09-07T12:59:45.177Z,4.1
2022-09-07T13:00:53.739Z,2.5
2022-09-07T13:02:02.267Z,2.5
2022-09-07T13:03:49.305Z,2.5
2022-09-07T13:04:18.971Z,3.3
2022-09-07T13:05:27.324Z,3.3
2022-09-07T13:07:05.141Z,3.3
2022-09-07T13:07:44.205Z,3.2
2022-09-07T13:08:52.580Z,3.2
2022-09-07T13:10:00.917Z,3.2
2022-09-07T13:11:09.425Z,4.3
2022-09-07T13:12:52.749Z,4.3
2022-09-07T13:14:34.854Z,3.1
2022-09-07T13:15:43.214Z,3.1
2022-09-07T13:17:21.436Z,3.1
2022-09-07T13:18:00.073Z,4
2022-09-07T13:19:08.389Z,4
2022-09-07T13:20:16.728Z,4
2022-09-07T13:21:25.299Z,4.4
2022-09-07T13:22:33.647Z,4.4
2022-09-07T13:23:42.000Z,4.4
2022-09-07T13:24:50.715Z,6
2022-09-07T13:25:58.930Z,6
2022-09-07T13:27:07.538Z,6
2022-09-07T13:28:15.813Z,5
2022-09-07T13:29:24.224Z,5
2022-09-07T13:30:32.495Z,5
2022-09-07T13:31:41.009Z,7
2022-09-07T13:33:57.706Z,7
2022-09-07T13:35:06.257Z,4.2
2022-09-07T13:36:14.599Z,4.2
2022-09-07T13:37:22.919Z,4.2
2022-09-07T13:38:31.460Z,2.9
2022-09-07T13:39:39.850Z,2.9
2022-09-07T13:40:48.200Z,2.9
2022-09-07T13:41:56.702Z,3
2022-09-07T13:43:05.028Z,3
2022-09-07T13:44:13.380Z,3
2022-09-07T13:45:21.942Z,3.5
2022-09-07T13:46:30.364Z,3.5
2022-09-07T13:47:38.610Z,3.5
2022-09-07T13:48:47.172Z,4.7
2022-09-07T13:49:56.159Z,4.7
2022-09-07T13:51:03.830Z,4.7
2022-09-07T13:52:12.367Z,3
2022-09-07T13:53:20.721Z,3
2022-09-07T13:54:29.076Z,3
2022-09-07T13:55:37.611Z,3.8
2022-09-07T13:56:45.990Z,3.8
2022-09-07T13:57:54.276Z,3.8
2022-09-07T13:59:02.831Z,3.4
2022-09-07T14:00:11.160Z,3.4
2022-09-07T14:01:19.576Z,3.4
2022-09-07T14:02:28.094Z,5
2022-09-07T14:03:36.400Z,5
2022-09-07T14:04:44.756Z,5
2022-09-07T14:05:53.297Z,3.4
2022-09-07T14:07:01.645Z,3.4
2022-09-07T14:08:09.950Z,3.4
2022-09-07T14:09:18.519Z,4.3
2022-09-07T14:10:26.838Z,4.3
2022-09-07T14:11:35.148Z,4.3
2022-09-07T14:12:43.699Z,4.3
2022-09-07T14:13:52.078Z,4.3
2022-09-07T14:15:00.381Z,4.3
2022-09-07T14:16:08.980Z,5.9
2022-09-07T14:17:17.257Z,5.9
2022-09-07T14:18:25.596Z,5.9
2022-09-07T14:19:34.174Z,6.1
2022-09-07T14:20:42.488Z,6.1
2022-09-07T14:21:50.844Z,6.1
2022-09-07T14:22:59.368Z,3.5
2022-09-07T14:24:07.696Z,3.5
2022-09-07T14:25:16.018Z,3.5
2022-09-07T14:26:24.558Z,5.4
2022-09-07T14:27:32.868Z,5.4
2022-09-07T14:28:41.214Z,5.4
2022-09-07T14:29:49.722Z,5.8
2022-09-07T15:04:57.697Z,0
2022-09-07T15:06:06.067Z,0
2022-09-07T15:07:14.317Z,0
2022-09-07T15:08:22.867Z,3.9
2022-09-07T15:09:31.197Z,3.9
2022-09-07T15:10:39.787Z,3.9
2022-09-07T15:11:48.041Z,5.2
2022-09-07T15:12:56.389Z,5.2
2022-09-07T15:14:04.731Z,5.2
2022-09-07T15:15:13.271Z,4.4
2022-09-07T15:16:22.187Z,4.4
2022-09-07T15:17:45.491Z,4.4
2022-09-07T15:18:38.470Z,3.6
2022-09-07T15:19:46.834Z,3.6
2022-09-07T15:20:55.169Z,3.6
2022-09-07T15:22:03.709Z,2.1
2022-09-07T15:23:12.091Z,2.1
2022-09-07T15:24:20.436Z,2.1
2022-09-07T15:25:28.971Z,5.5
2022-09-07T15:27:45.677Z,5.5
2022-09-07T15:29:11.103Z,4.5
2022-09-07T15:30:03.006Z,4.5
2022-09-07T15:32:19.919Z,4.5
2022-09-07T15:33:28.232Z,4.5
2022-09-07T15:34:36.579Z,4.5
2022-09-07T15:35:45.115Z,5.5
2022-09-07T15:36:54.069Z,5.5
2022-09-07T15:38:03.139Z,5.5
2022-09-07T15:39:10.342Z,4.3
2022-09-07T15:40:20.329Z,4.3
2022-09-07T15:41:27.634Z,4.3
2022-09-07T15:43:43.921Z,4.3
2022-09-07T15:44:52.273Z,4.3
2022-09-07T15:46:00.879Z,2.5
2022-09-07T15:48:17.555Z,2.5
2022-09-07T15:49:26.804Z,4
2022-09-07T15:50:34.422Z,4
2022-09-07T15:52:12.596Z,4
2022-09-07T15:52:51.336Z,4.2
2022-09-07T15:54:11.354Z,4.2
2022-09-07T15:55:07.973Z,4.2
2022-09-07T15:56:16.562Z,5.1
2022-09-07T15:58:33.394Z,5.1
2022-09-07T15:59:41.819Z,5
2022-09-07T16:01:51.044Z,5
2022-09-07T16:01:58.800Z,5
2022-09-07T16:03:08.224Z,4.3
2022-09-07T16:04:15.571Z,4.3
2022-09-07T16:05:24.346Z,4.3
2022-09-07T16:06:32.430Z,3.8
2022-09-07T16:08:51.339Z,3.8
2022-09-07T16:09:57.631Z,4.3
2022-09-07T16:11:07.794Z,4.3
2022-09-07T16:13:22.727Z,5.7
2022-09-07T16:14:34.954Z,5.7
2022-09-07T16:15:39.522Z,5.7
2022-09-07T16:17:59.419Z,3.4
2022-09-07T16:19:07.774Z,3.4
2022-09-07T16:20:16.274Z,4.3
2022-09-07T16:21:26.199Z,4.3
2022-09-07T16:23:41.537Z,2.8
2022-09-07T16:24:49.941Z,2.8
2022-09-07T16:25:58.191Z,2.8
2022-09-07T16:27:06.740Z,3.3
2022-09-07T16:28:15.047Z,3.3
2022-09-07T16:29:23.382Z,3.3
2022-09-07T16:30:31.926Z,4.7
2022-09-07T16:32:43.821Z,4.7
2022-09-07T16:32:48.653Z,4.7
2022-09-07T16:33:57.186Z,3.6
2022-09-07T16:35:05.527Z,3.6
2022-09-07T16:36:13.867Z,3.6
2022-09-07T16:37:22.424Z,3
2022-09-07T16:38:46.263Z,3
2022-09-07T16:39:39.149Z,3
2022-09-07T16:40:47.665Z,4.7
2022-09-07T16:41:55.986Z,4.7
2022-09-07T16:43:04.336Z,4.7
2022-09-07T16:44:12.898Z,3.1
2022-09-07T16:46:29.586Z,3.1
2022-09-07T16:47:38.151Z,5.4
2022-09-07T16:48:46.491Z,5.4
2022-09-07T16:49:54.835Z,5.4
2022-09-07T16:51:03.384Z,4.4
2022-09-07T16:52:11.728Z,4.4